Northwest, Indiana
Current Conditions -  °F | °C
As of 2:35 AM on Saturday 25 Oct 2014 (Local Time) from KDCY Reporting Station
Haze Haze  
Wind Chill: 47°   Ceiling: Unl
Heat Index: 49°   Visibility: 5mi
Dew Point: 49°   Wind: 6mph
Humidity: 100%   Direction: 150°SSE
Pressure: 30.01"   Gusts: NA
Location:  38.6165°N, 86.6265°W
Report Text: KDCY 250635Z AUTO 15005KT 5SM BR CLR 10/10 A3001 RMK AO2 T00950095
Loading
Personal Weather Stations






























Interactive Weather Map New forecast layout! Learn more

10-Day Weather Forecast

Advertisements
Track Severe Weather on mobile